Flight Track Log - Related Links

Times and Time Zones

All times are in EDT time to prevent confusion due to time zone crossing. See the AWE1940 flight status page for this flight to view local times or setup timezone preferences in your user account.

Time Position Orientation Groundspeed Altitude Reporting Facility
EDT Latitude Longitude Course Direction KTS MPH feet Rate Location/Type
Mon 06:42:16 PM 29.8733 -95.1911 74° East 261 300 4,000  Level Houston Center
Mon 06:42:55 PM 29.8261 -95.1481 142° Southeast 283 326 4,200 1,620 Climbing Houston Center
Mon 06:43:00 PM 29.9834 -94.7981 90° East  Level FlightAware Approximate
Mon 06:43:56 PM 29.7992 -95.0622 110° East 288 331 6,700  Level Houston Center
Mon 06:44:00 PM 29.9833 -94.6643 90° East  Level FlightAware Approximate
Mon 06:44:20 PM 29.7981 -95.0411 93° East 287 330 7,200  Level Houston Center
Mon 06:45:00 PM 29.9833 -94.5305 90° East  Level FlightAware Approximate
Mon 06:45:22 PM 29.8122 -94.9286 82° East 300 345 10,500  Level Houston Center
Mon 06:46:00 PM 29.9834 -94.3949 90° East  Level FlightAware Approximate
Mon 06:47:00 PM 29.9931 -94.2608 74° East  Level FlightAware Approximate
Mon 06:47:26 PM 29.8725 -94.7286 71° East 346 398 14,400  Level Houston Center
Mon 06:49:00 PM 29.9592 -94.5425 107° East  Level Estimated
Mon 06:49:30 PM 29.9414 -94.4894 107° East 399 459 18,800  Level Houston Center
Mon 06:50:32 PM 29.9714 -94.3606 75° East 409 471 21,200 1,839 Climbing Houston Center
Mon 06:52:00 PM 29.9770 -94.1610 81° East  Level FlightAware Approximate
Mon 06:52:36 PM 30.0119 -94.0539 81° East 453 521 24,500  Level Houston Center
Mon 06:53:38 PM 30.0328 -93.9067 81° East 465 535 26,200 1,621 Climbing Houston Center
Mon 06:55:00 PM 30.0390 -93.7215 77° East  Level FlightAware Approximate
Mon 06:56:44 PM 30.0889 -93.4814 62° Northeast 461 531 31,200  Level Houston Center
Mon 06:57:46 PM 30.1131 -93.3061 81° East 468 539 32,300 871 Climbing Houston Center
Mon 06:58:48 PM 30.1325 -93.1558 81° East 476 548 33,000 339 Climbing Houston Center
Mon 06:59:50 PM 30.1594 -93.0042 78° East 486 559 33,000  Level Houston Center
Mon 07:01:00 PM 30.2244 -92.8640 62° Northeast  Level FlightAware Approximate
Mon 07:01:53 PM 30.2767 -92.7244 62° Northeast 490 564 33,000  Level Houston Center
Mon 07:02:00 PM 30.2596 -92.8193 62° Northeast  Level FlightAware Approximate
Mon 07:02:55 PM 30.3525 -92.5561 62° Northeast 493 567 32,900  Level Houston Center
Mon 07:03:57 PM 30.4156 -92.4161 62° Northeast 493 567 33,000 48 Climbing Houston Center
Mon 07:04:59 PM 30.4733 -92.2850 63° Northeast 491 565 33,000  Level Houston Center
Mon 07:06:01 PM 30.5356 -92.1464 62° Northeast 489 563 33,000  Level Houston Center
Mon 07:07:02 PM 30.6097 -91.9786 63° Northeast 489 563 33,000  Level Houston Center
Mon 07:08:04 PM 30.6725 -91.8383 62° Northeast 491 565 33,000  Level Houston Center
Mon 07:09:06 PM 30.7350 -91.6975 63° Northeast 493 567 33,000  Level Houston Center
Mon 07:10:08 PM 30.7967 -91.5581 63° Northeast 491 565 33,000  Level Houston Center
Mon 07:12:11 PM 30.9319 -91.2483 63° Northeast 490 564 33,000  Level Houston Center
Mon 07:13:13 PM 30.9931 -91.1069 63° Northeast 489 563 33,000  Level Houston Center
Mon 07:14:15 PM 31.0561 -90.9614 63° Northeast 491 565 33,000  Level Houston Center
Mon 07:15:17 PM 31.1172 -90.8183 63° Northeast 492 566 33,000  Level Houston Center
Mon 07:16:19 PM 31.1800 -90.6747 63° Northeast 494 568 33,000  Level Houston Center
Mon 07:17:20 PM 31.2403 -90.5303 64° Northeast 494 568 33,000 -49 Level Houston Center
Mon 07:18:22 PM 31.3014 -90.3861 64° Northeast 494 568 32,900  Descending Houston Center
Mon 07:19:24 PM 31.3628 -90.2406 64° Northeast 497 572 33,000 36 Climbing Houston Center
Mon 07:21:08 PM 31.4772 -89.9725 63° Northeast 481 554 33,000  Level Memphis Center
Mon 07:21:27 PM 31.4958 -89.9267 65° Northeast 488 562 33,000  Level Houston Center
Mon 07:23:08 PM 31.5889 -89.7014 64° Northeast 481 554 33,000  Level Memphis Center
Mon 07:25:00 PM 31.6829 -89.4664 64° Northeast  Level FlightAware Approximate
Mon 07:26:08 PM 31.7653 -89.2822 64° Northeast 475 547 33,000  Level Memphis Center
Mon 07:27:08 PM 31.8244 -89.1300 65° Northeast 467 537 33,000  Level Memphis Center
Mon 07:28:08 PM 31.8856 -88.9872 63° Northeast 467 537 33,000  Level Memphis Center
Mon 07:29:08 PM 31.9322 -88.8717 65° Northeast 472 543 33,000  Level Memphis Center
Mon 07:30:43 PM 32.0267 -88.6428 64° Northeast 485 558 33,000  Level Houston Center
Mon 07:31:46 PM 32.0992 -88.4689 64° Northeast 483 556 33,000  Level Atlanta Center
Mon 07:32:46 PM 32.1542 -88.3294 65° Northeast 472 543 33,000  Level Atlanta Center
Mon 07:34:00 PM 32.2189 -88.1747 64° Northeast  Level FlightAware Approximate
Mon 07:34:46 PM 32.2681 -88.0475 64° Northeast 472 543 33,000  Level Atlanta Center
Mon 07:35:46 PM 32.3247 -87.9075 64° Northeast 472 543 33,000  Level Atlanta Center
Mon 07:36:46 PM 32.3811 -87.7650 65° Northeast 472 543 33,000  Level Atlanta Center
Mon 07:37:46 PM 32.4375 -87.6269 64° Northeast 472 543 33,000  Level Atlanta Center
Mon 07:38:46 PM 32.4897 -87.4789 67° East 472 543 33,000  Level Atlanta Center
Mon 07:39:46 PM 32.5458 -87.3333 65° Northeast 478 550 33,000  Level Atlanta Center
Mon 07:40:46 PM 32.6017 -87.1925 65° Northeast 472 543 33,000  Level Atlanta Center
Mon 07:41:46 PM 32.6575 -87.0464 66° East 472 543 33,000  Level Atlanta Center
Mon 07:42:46 PM 32.7131 -86.9050 65° Northeast 477 549 33,000  Level Atlanta Center
Mon 07:43:46 PM 32.7686 -86.7586 66° East 472 543 33,000  Level Atlanta Center
Mon 07:45:00 PM 32.8251 -86.5989 67° East  Level FlightAware Approximate
Mon 07:45:46 PM 32.8769 -86.4678 67° East 476 548 33,000  Level Atlanta Center
Mon 07:47:00 PM 32.9316 -86.3068 66° East  Level FlightAware Approximate
Mon 07:47:46 PM 32.9864 -86.2008 66° East 469 540 33,000  Level Atlanta Center
Mon 07:48:46 PM 33.0369 -86.0433 69° East 464 534 33,000  Level Atlanta Center
Mon 07:49:46 PM 33.0914 -85.8983 66° East 469 540 33,000 -400 Level Atlanta Center
Mon 07:51:00 PM 33.1446 -85.7347 70° East  Level FlightAware Approximate
Mon 07:51:46 PM 33.1933 -85.6225 70° East 462 532 31,800  Level Atlanta Center
Mon 07:52:46 PM 33.2472 -85.4869 65° Northeast 457 526 30,800 -900 Descending Atlanta Center
Mon 07:53:46 PM 33.2989 -85.3461 66° East 452 520 30,000 -750 Descending Atlanta Center
Mon 07:54:46 PM 33.3506 -85.1978 67° East 473 544 29,300 -500 Descending Atlanta Center
Mon 07:55:46 PM 33.4081 -85.0467 65° Northeast 478 550 29,000 -150 Descending Atlanta Center
Mon 07:56:46 PM 33.4614 -84.8978 67° East 491 565 29,000  Level Atlanta Center
Mon 07:57:46 PM 33.5167 -84.7439 67° East 491 565 29,000  Level Atlanta Center
Mon 07:59:00 PM 33.5700 -84.5788 69° East  Level FlightAware Approximate
Mon 07:59:46 PM 33.6183 -84.4553 69° East 497 572 29,000  Level Atlanta Center
Mon 08:01:00 PM 33.6592 -84.2838 71° East  Level FlightAware Approximate
Mon 08:02:46 PM 33.7586 -83.9664 72° East 499 574 29,000  Level Atlanta Center
Mon 08:03:46 PM 33.8025 -83.8114 71° East 493 567 29,000  Level Atlanta Center
Mon 08:04:46 PM 33.8458 -83.6586 71° East 487 560 29,000  Level Atlanta Center
Mon 08:05:46 PM 33.8892 -83.5058 71° East 487 560 29,000  Level Atlanta Center
Mon 08:06:46 PM 33.9322 -83.3503 72° East 482 555 29,000  Level Atlanta Center
Mon 08:07:46 PM 33.9731 -83.1972 72° East 482 555 29,000 -250 Level Atlanta Center
Mon 08:08:00 PM 33.9245 -83.3242 72° East  Level FlightAware Approximate
Mon 08:08:46 PM 34.0114 -83.0414 73° East 482 555 28,500  Level Atlanta Center
Mon 08:09:46 PM 34.0478 -82.9056 72° East 482 555 27,800 -700 Descending Atlanta Center
Mon 08:10:46 PM 34.0900 -82.7494 72° East 482 555 27,100 -750 Descending Atlanta Center
Mon 08:11:46 PM 34.1344 -82.5983 70° East 477 549 26,300 -800 Descending Atlanta Center
Mon 08:12:46 PM 34.1719 -82.4419 74° East 482 555 25,500 -800 Descending Atlanta Center
Mon 08:13:46 PM 34.2139 -82.2881 72° East 482 555 24,700 -1,267 Descending Atlanta Center
Mon 08:15:00 PM 34.2731 -82.1199 47° Northeast  Level FlightAware Approximate
Mon 08:15:46 PM 34.3494 -82.0233 47° Northeast 463 533 21,700  Level Atlanta Center
Mon 08:16:46 PM 34.4394 -81.9156 45° Northeast 457 526 19,500 -2,100 Descending Atlanta Center
Mon 08:17:46 PM 34.5233 -81.8100 46° Northeast 444 511 17,500 -2,153 Descending Atlanta Center
Mon 08:18:57 PM 34.6314 -81.6758 46° Northeast 417 480 14,800 -2,230 Descending Atlanta Center
Mon 08:19:39 PM 34.6864 -81.6061 46° Northeast 416 479 13,300 -1,486 Descending Atlanta Center
Mon 08:20:46 PM 34.7617 -81.5103 46° Northeast 399 459 12,100 -537 Descending Atlanta Center
Mon 08:21:53 PM 34.8508 -81.3889 48° Northeast 386 444 12,100  Level Atlanta Center
Mon 08:22:54 PM 34.9261 -81.2953 46° Northeast 388 447 12,100 -53 Level Atlanta Center
Mon 08:23:46 PM 34.9889 -81.2144 47° Northeast 383 441 12,000 -214 Descending Atlanta Center
Mon 08:24:46 PM 35.0619 -81.1206 46° Northeast 378 435 11,700 -550 Descending Atlanta Center
Mon 08:25:46 PM 35.1375 -81.0597 33° Northeast 344 396 10,900 -868 Descending Atlanta Center
Mon 08:26:02 PM 35.1647 -81.0661 349° North 307 353 10,600 -1,400 Descending Atlanta Center
Mon 08:26:46 PM 35.2208 -81.0514 12° North 303 349 9,500 -1,962 Descending Atlanta Center
Mon 08:27:46 PM 35.2756 -80.9833 45° Northeast 274 315 7,200 -1,950 Descending Atlanta Center
Mon 08:28:46 PM 35.3217 -80.9156 50° Northeast 259 298 5,600 -1,488 Descending Atlanta Center
Mon 08:29:47 PM 35.3600 -80.8581 51° Northeast 216 249 4,200 -1,377 Descending Atlanta Center
Mon 08:31:00 PM 35.2254 -80.9461 158° South  Level FlightAware Approximate

Login

Don't have an account? Register now (free) for customized features, flight alerts, and more!